sensor_id;sensor_type;location;lat;lon;timestamp;pressure;altitude;pressure_sealevel;temperature;humidity
5455;BME280;2750;49.050;9.250;2023-04-26T00:02:04;98846.06;;;9.47;85.79
5455;BME280;2750;49.050;9.250;2023-04-26T00:07:06;98842.72;;;9.65;85.28
5455;BME280;2750;49.050;9.250;2023-04-26T00:12:08;98845.88;;;9.51;85.79
5455;BME280;2750;49.050;9.250;2023-04-26T00:17:11;98839.97;;;9.70;85.11
5455;BME280;2750;49.050;9.250;2023-04-26T00:22:13;98840.19;;;9.64;85.21
5455;BME280;2750;49.050;9.250;2023-04-26T00:27:15;98842.94;;;9.81;85.52
5455;BME280;2750;49.050;9.250;2023-04-26T00:32:16;98842.34;;;10.15;83.99
5455;BME280;2750;49.050;9.250;2023-04-26T00:37:19;98838.41;;;10.04;82.69
5455;BME280;2750;49.050;9.250;2023-04-26T00:42:22;98838.13;;;9.92;81.60
5455;BME280;2750;49.050;9.250;2023-04-26T00:47:24;98849.00;;;9.80;83.47
5455;BME280;2750;49.050;9.250;2023-04-26T00:52:27;98850.88;;;9.56;84.28
5455;BME280;2750;49.050;9.250;2023-04-26T00:57:29;98852.78;;;9.73;83.89
5455;BME280;2750;49.050;9.250;2023-04-26T01:02:30;98855.00;;;9.40;84.61
5455;BME280;2750;49.050;9.250;2023-04-26T01:07:33;98854.16;;;9.39;85.23
5455;BME280;2750;49.050;9.250;2023-04-26T01:12:36;98858.50;;;9.39;84.26
5455;BME280;2750;49.050;9.250;2023-04-26T01:17:38;98852.06;;;9.27;84.98
5455;BME280;2750;49.050;9.250;2023-04-26T01:22:41;98854.03;;;9.21;85.52
5455;BME280;2750;49.050;9.250;2023-04-26T01:27:42;98852.84;;;9.29;83.59
5455;BME280;2750;49.050;9.250;2023-04-26T01:32:44;98853.81;;;9.05;84.33
5455;BME280;2750;49.050;9.250;2023-04-26T01:37:47;98854.09;;;8.97;84.31
5455;BME280;2750;49.050;9.250;2023-04-26T01:42:48;98850.47;;;8.58;86.14
5455;BME280;2750;49.050;9.250;2023-04-26T01:47:50;98849.88;;;8.27;86.98
5455;BME280;2750;49.050;9.250;2023-04-26T01:52:52;98853.56;;;8.44;86.91
5455;BME280;2750;49.050;9.250;2023-04-26T01:57:54;98846.81;;;8.40;85.68
5455;BME280;2750;49.050;9.250;2023-04-26T02:02:56;98850.31;;;8.14;86.59
5455;BME280;2750;49.050;9.250;2023-04-26T02:07:59;98846.72;;;8.18;87.69
5455;BME280;2750;49.050;9.250;2023-04-26T02:13:00;98846.50;;;8.25;87.76
5455;BME280;2750;49.050;9.250;2023-04-26T02:18:02;98846.59;;;8.22;87.23
5455;BME280;2750;49.050;9.250;2023-04-26T02:23:05;98845.06;;;8.41;86.84
5455;BME280;2750;49.050;9.250;2023-04-26T02:28:06;98853.59;;;8.20;87.29
5455;BME280;2750;49.050;9.250;2023-04-26T02:33:08;98848.41;;;8.20;86.06
5455;BME280;2750;49.050;9.250;2023-04-26T02:38:11;98849.81;;;7.80;87.29
5455;BME280;2750;49.050;9.250;2023-04-26T02:43:12;98861.91;;;7.53;87.61
5455;BME280;2750;49.050;9.250;2023-04-26T02:48:14;98852.44;;;7.54;87.52
5455;BME280;2750;49.050;9.250;2023-04-26T02:53:16;98851.53;;;7.29;87.53
5455;BME280;2750;49.050;9.250;2023-04-26T02:58:18;98857.00;;;7.19;88.16
5455;BME280;2750;49.050;9.250;2023-04-26T03:03:20;98857.75;;;7.23;88.15
5455;BME280;2750;49.050;9.250;2023-04-26T03:08:23;98852.69;;;7.20;87.35
5455;BME280;2750;49.050;9.250;2023-04-26T03:13:24;98856.81;;;6.98;88.05
5455;BME280;2750;49.050;9.250;2023-04-26T03:18:26;98856.38;;;6.85;89.16
5455;BME280;2750;49.050;9.250;2023-04-26T03:23:29;98861.41;;;6.88;88.62
5455;BME280;2750;49.050;9.250;2023-04-26T03:28:30;98856.50;;;7.08;87.44
5455;BME280;2750;49.050;9.250;2023-04-26T03:33:32;98864.50;;;6.99;88.55
5455;BME280;2750;49.050;9.250;2023-04-26T03:38:34;98865.13;;;7.34;88.33
5455;BME280;2750;49.050;9.250;2023-04-26T03:43:36;98870.06;;;7.13;91.23
5455;BME280;2750;49.050;9.250;2023-04-26T03:48:37;98864.75;;;7.19;90.35
5455;BME280;2750;49.050;9.250;2023-04-26T03:53:40;98854.34;;;7.21;90.75
5455;BME280;2750;49.050;9.250;2023-04-26T03:58:42;98861.56;;;7.38;88.00
5455;BME280;2750;49.050;9.250;2023-04-26T04:03:43;98869.78;;;6.96;89.94
5455;BME280;2750;49.050;9.250;2023-04-26T04:08:46;98866.94;;;6.76;89.11
5455;BME280;2750;49.050;9.250;2023-04-26T04:13:48;98867.75;;;6.78;88.18
5455;BME280;2750;49.050;9.250;2023-04-26T04:18:49;98861.41;;;6.60;88.35
5455;BME280;2750;49.050;9.250;2023-04-26T04:23:52;98865.69;;;6.60;89.27
5455;BME280;2750;49.050;9.250;2023-04-26T04:28:54;98871.94;;;6.82;90.12
5455;BME280;2750;49.050;9.250;2023-04-26T04:33:56;98859.13;;;6.79;89.58
5455;BME280;2750;49.050;9.250;2023-04-26T04:38:59;98871.63;;;7.19;91.23
5455;BME280;2750;49.050;9.250;2023-04-26T04:44:02;98872.16;;;7.81;90.73
5455;BME280;2750;49.050;9.250;2023-04-26T04:49:04;98880.13;;;8.48;90.12
5455;BME280;2750;49.050;9.250;2023-04-26T04:54:11;98879.31;;;9.57;88.66
5455;BME280;2750;49.050;9.250;2023-04-26T04:59:13;98875.75;;;10.78;84.54
5455;BME280;2750;49.050;9.250;2023-04-26T05:04:17;98880.50;;;11.95;80.68
5455;BME280;2750;49.050;9.250;2023-04-26T05:09:20;98887.13;;;12.99;76.77
5455;BME280;2750;49.050;9.250;2023-04-26T05:14:21;98890.22;;;14.12;74.79
5455;BME280;2750;49.050;9.250;2023-04-26T05:19:23;98885.75;;;15.40;70.44
5455;BME280;2750;49.050;9.250;2023-04-26T05:24:28;98894.78;;;16.65;66.03
5455;BME280;2750;49.050;9.250;2023-04-26T05:29:30;98898.31;;;17.62;63.51
5455;BME280;2750;49.050;9.250;2023-04-26T05:34:31;98904.50;;;17.61;60.72
5455;BME280;2750;49.050;9.250;2023-04-26T05:39:34;98915.06;;;17.36;59.59
5455;BME280;2750;49.050;9.250;2023-04-26T05:44:36;98909.44;;;18.01;58.65
5455;BME280;2750;49.050;9.250;2023-04-26T05:49:37;98916.44;;;18.35;58.11
5455;BME280;2750;49.050;9.250;2023-04-26T05:54:40;98912.44;;;18.65;57.17
5455;BME280;2750;49.050;9.250;2023-04-26T05:59:42;98918.03;;;17.79;57.47
5455;BME280;2750;49.050;9.250;2023-04-26T06:04:44;98917.16;;;19.37;57.44
5455;BME280;2750;49.050;9.250;2023-04-26T06:09:47;98920.41;;;19.30;56.92
5455;BME280;2750;49.050;9.250;2023-04-26T06:14:49;98921.91;;;19.66;57.94
5455;BME280;2750;49.050;9.250;2023-04-26T06:19:50;98916.47;;;21.12;54.62
5455;BME280;2750;49.050;9.250;2023-04-26T06:24:53;98924.16;;;20.43;54.64
5455;BME280;2750;49.050;9.250;2023-04-26T06:29:55;98913.09;;;22.93;50.79
5455;BME280;2750;49.050;9.250;2023-04-26T06:34:57;98920.28;;;22.73;49.48
5455;BME280;2750;49.050;9.250;2023-04-26T06:40:00;98931.41;;;21.32;52.71
5455;BME280;2750;49.050;9.250;2023-04-26T06:45:02;98932.75;;;18.85;55.84
5455;BME280;2750;49.050;9.250;2023-04-26T06:50:04;98936.63;;;17.16;57.72
5455;BME280;2750;49.050;9.250;2023-04-26T06:55:08;98937.50;;;15.35;59.51
5455;BME280;2750;49.050;9.250;2023-04-26T07:00:11;98945.56;;;14.47;63.05
5455;BME280;2750;49.050;9.250;2023-04-26T07:05:13;98937.66;;;14.19;62.55
5455;BME280;2750;49.050;9.250;2023-04-26T07:10:16;98929.28;;;14.14;62.33
5455;BME280;2750;49.050;9.250;2023-04-26T07:15:18;98920.47;;;15.01;58.81
5455;BME280;2750;49.050;9.250;2023-04-26T07:20:20;98912.03;;;17.66;56.40
5455;BME280;2750;49.050;9.250;2023-04-26T07:25:23;98908.69;;;20.50;52.63
5455;BME280;2750;49.050;9.250;2023-04-26T07:30:24;98889.22;;;23.29;47.71
5455;BME280;2750;49.050;9.250;2023-04-26T07:35:26;98888.41;;;23.19;47.76
5455;BME280;2750;49.050;9.250;2023-04-26T07:40:29;98895.56;;;23.19;46.38
5455;BME280;2750;49.050;9.250;2023-04-26T07:45:31;98895.94;;;25.07;44.88
5455;BME280;2750;49.050;9.250;2023-04-26T07:50:33;98904.63;;;24.32;45.84
5455;BME280;2750;49.050;9.250;2023-04-26T07:55:35;98898.28;;;23.54;45.75
5455;BME280;2750;49.050;9.250;2023-04-26T08:00:37;98898.56;;;24.04;43.68
5455;BME280;2750;49.050;9.250;2023-04-26T08:05:39;98887.75;;;23.45;43.77
5455;BME280;2750;49.050;9.250;2023-04-26T08:10:42;98896.00;;;24.56;41.57
5455;BME280;2750;49.050;9.250;2023-04-26T08:15:43;98903.97;;;22.02;42.42
5455;BME280;2750;49.050;9.250;2023-04-26T08:20:45;98903.94;;;22.21;44.82
5455;BME280;2750;49.050;9.250;2023-04-26T08:25:48;98899.41;;;22.60;43.68
5455;BME280;2750;49.050;9.250;2023-04-26T08:30:49;98901.94;;;22.89;43.44
5455;BME280;2750;49.050;9.250;2023-04-26T08:35:51;98908.25;;;21.65;44.32
5455;BME280;2750;49.050;9.250;2023-04-26T08:40:54;98904.91;;;21.82;43.74
5455;BME280;2750;49.050;9.250;2023-04-26T08:46:01;98913.88;;;21.22;43.09
5455;BME280;2750;49.050;9.250;2023-04-26T08:51:06;98915.94;;;20.37;43.56
5455;BME280;2750;49.050;9.250;2023-04-26T08:56:12;98901.84;;;21.58;42.46
5455;BME280;2750;49.050;9.250;2023-04-26T09:01:14;98915.75;;;18.55;47.56
5455;BME280;2750;49.050;9.250;2023-04-26T09:06:16;98905.63;;;19.61;44.81
5455;BME280;2750;49.050;9.250;2023-04-26T09:11:19;98909.13;;;17.58;47.87
5455;BME280;2750;49.050;9.250;2023-04-26T09:16:33;98907.91;;;17.38;49.22
5455;BME280;2750;49.050;9.250;2023-04-26T09:21:41;98901.66;;;17.28;49.93
5455;BME280;2750;49.050;9.250;2023-04-26T09:26:44;98907.13;;;16.76;50.63
5455;BME280;2750;49.050;9.250;2023-04-26T09:31:48;98902.47;;;17.65;49.50
5455;BME280;2750;49.050;9.250;2023-04-26T09:36:51;98896.66;;;18.65;48.31
5455;BME280;2750;49.050;9.250;2023-04-26T09:41:56;98884.41;;;19.30;48.20
5455;BME280;2750;49.050;9.250;2023-04-26T09:46:59;98878.78;;;20.19;46.66
5455;BME280;2750;49.050;9.250;2023-04-26T09:52:02;98883.41;;;20.06;45.44
5455;BME280;2750;49.050;9.250;2023-04-26T09:57:06;98880.09;;;18.18;47.15
5455;BME280;2750;49.050;9.250;2023-04-26T10:02:12;98870.09;;;18.90;48.23
5455;BME280;2750;49.050;9.250;2023-04-26T10:07:16;98881.94;;;17.23;51.16
5455;BME280;2750;49.050;9.250;2023-04-26T10:12:19;98889.56;;;17.02;50.33
5455;BME280;2750;49.050;9.250;2023-04-26T10:17:20;98887.22;;;17.46;50.26
5455;BME280;2750;49.050;9.250;2023-04-26T10:22:23;98877.66;;;18.72;48.40
5455;BME280;2750;49.050;9.250;2023-04-26T10:27:49;98878.56;;;18.38;49.06
5455;BME280;2750;49.050;9.250;2023-04-26T10:33:15;98880.84;;;18.42;48.75
5455;BME280;2750;49.050;9.250;2023-04-26T10:38:21;98873.25;;;18.73;50.85
5455;BME280;2750;49.050;9.250;2023-04-26T10:43:29;98870.41;;;19.30;50.51
5455;BME280;2750;49.050;9.250;2023-04-26T10:48:32;98857.50;;;19.27;49.94
5455;BME280;2750;49.050;9.250;2023-04-26T10:54:00;98862.00;;;19.36;48.76
5455;BME280;2750;49.050;9.250;2023-04-26T10:59:07;98852.91;;;18.52;50.21
5455;BME280;2750;49.050;9.250;2023-04-26T11:04:10;98857.34;;;19.50;46.73
5455;BME280;2750;49.050;9.250;2023-04-26T11:09:32;98857.47;;;18.73;47.16
5455;BME280;2750;49.050;9.250;2023-04-26T11:14:35;98848.13;;;18.35;47.77
5455;BME280;2750;49.050;9.250;2023-04-26T11:19:37;98834.25;;;18.89;44.95
5455;BME280;2750;49.050;9.250;2023-04-26T11:24:41;98836.03;;;20.16;44.85
5455;BME280;2750;49.050;9.250;2023-04-26T11:29:43;98824.81;;;19.93;45.30
5455;BME280;2750;49.050;9.250;2023-04-26T11:34:45;98809.56;;;20.47;43.40
5455;BME280;2750;49.050;9.250;2023-04-26T11:39:51;98813.41;;;21.23;43.42
5455;BME280;2750;49.050;9.250;2023-04-26T11:44:55;98802.66;;;20.56;43.00
5455;BME280;2750;49.050;9.250;2023-04-26T11:49:59;98803.44;;;18.69;44.87
5455;BME280;2750;49.050;9.250;2023-04-26T11:55:03;98806.53;;;17.37;45.91
5455;BME280;2750;49.050;9.250;2023-04-26T12:00:08;98794.06;;;17.87;45.56
5455;BME280;2750;49.050;9.250;2023-04-26T12:05:20;98797.44;;;17.54;47.44
5455;BME280;2750;49.050;9.250;2023-04-26T12:10:25;98789.66;;;17.98;46.89
5455;BME280;2750;49.050;9.250;2023-04-26T12:15:29;98790.41;;;18.45;46.88
5455;BME280;2750;49.050;9.250;2023-04-26T12:20:31;98781.44;;;18.81;45.16
5455;BME280;2750;49.050;9.250;2023-04-26T12:25:36;98784.81;;;18.60;45.67
5455;BME280;2750;49.050;9.250;2023-04-26T12:30:39;98780.50;;;18.26;46.24
5455;BME280;2750;49.050;9.250;2023-04-26T12:35:41;98783.91;;;17.36;47.71
5455;BME280;2750;49.050;9.250;2023-04-26T12:40:44;98777.13;;;17.91;47.03
5455;BME280;2750;49.050;9.250;2023-04-26T12:45:48;98776.69;;;18.52;46.23
5455;BME280;2750;49.050;9.250;2023-04-26T12:50:50;98775.81;;;17.50;46.44
5455;BME280;2750;49.050;9.250;2023-04-26T12:55:53;98779.72;;;17.10;48.42
5455;BME280;2750;49.050;9.250;2023-04-26T13:00:55;98762.56;;;17.98;48.27
5455;BME280;2750;49.050;9.250;2023-04-26T13:05:56;98762.69;;;19.49;45.46
5455;BME280;2750;49.050;9.250;2023-04-26T13:11:00;98777.16;;;19.43;46.35
5455;BME280;2750;49.050;9.250;2023-04-26T13:16:01;98770.53;;;18.96;46.98
5455;BME280;2750;49.050;9.250;2023-04-26T13:21:03;98764.69;;;18.93;47.51
5455;BME280;2750;49.050;9.250;2023-04-26T13:26:06;98776.75;;;17.38;49.04
5455;BME280;2750;49.050;9.250;2023-04-26T13:31:08;98768.41;;;17.79;49.48
5455;BME280;2750;49.050;9.250;2023-04-26T13:36:11;98754.44;;;19.10;47.06
5455;BME280;2750;49.050;9.250;2023-04-26T13:41:13;98741.06;;;18.48;49.06
5455;BME280;2750;49.050;9.250;2023-04-26T13:46:15;98759.00;;;18.32;48.30
5455;BME280;2750;49.050;9.250;2023-04-26T13:51:17;98760.19;;;17.95;48.57
5455;BME280;2750;49.050;9.250;2023-04-26T13:56:20;98762.44;;;18.44;48.28
5455;BME280;2750;49.050;9.250;2023-04-26T14:01:21;98747.63;;;20.32;45.81
5455;BME280;2750;49.050;9.250;2023-04-26T14:06:23;98756.09;;;21.91;44.39
5455;BME280;2750;49.050;9.250;2023-04-26T14:11:25;98741.47;;;22.33;43.38
5455;BME280;2750;49.050;9.250;2023-04-26T14:16:27;98736.63;;;21.82;43.91
5455;BME280;2750;49.050;9.250;2023-04-26T14:21:29;98738.91;;;21.49;44.17
5455;BME280;2750;49.050;9.250;2023-04-26T14:26:32;98739.56;;;22.26;43.37
5455;BME280;2750;49.050;9.250;2023-04-26T14:31:33;98734.38;;;20.63;45.25
5455;BME280;2750;49.050;9.250;2023-04-26T14:36:35;98735.56;;;21.08;44.08
5455;BME280;2750;49.050;9.250;2023-04-26T14:41:37;98732.69;;;20.52;45.15
5455;BME280;2750;49.050;9.250;2023-04-26T14:46:40;98740.03;;;18.94;46.53
5455;BME280;2750;49.050;9.250;2023-04-26T14:51:41;98742.75;;;19.35;46.65
5455;BME280;2750;49.050;9.250;2023-04-26T14:56:44;98740.34;;;19.94;45.80
5455;BME280;2750;49.050;9.250;2023-04-26T15:01:45;98739.19;;;21.45;44.69
5455;BME280;2750;49.050;9.250;2023-04-26T15:06:47;98738.91;;;21.39;44.18
5455;BME280;2750;49.050;9.250;2023-04-26T15:11:50;98729.84;;;22.54;43.38
5455;BME280;2750;49.050;9.250;2023-04-26T15:16:52;98715.78;;;22.26;43.37
5455;BME280;2750;49.050;9.250;2023-04-26T15:21:54;98724.47;;;21.14;43.99
5455;BME280;2750;49.050;9.250;2023-04-26T15:26:57;98730.81;;;21.69;43.81
5455;BME280;2750;49.050;9.250;2023-04-26T15:31:59;98707.97;;;21.78;43.31
5455;BME280;2750;49.050;9.250;2023-04-26T15:37:00;98695.03;;;22.21;42.68
5455;BME280;2750;49.050;9.250;2023-04-26T15:42:04;98710.38;;;20.56;43.82
5455;BME280;2750;49.050;9.250;2023-04-26T15:47:06;98700.47;;;22.92;41.71
5455;BME280;2750;49.050;9.250;2023-04-26T15:52:07;98696.41;;;22.53;42.52
5455;BME280;2750;49.050;9.250;2023-04-26T15:57:11;98692.09;;;21.97;42.64
5455;BME280;2750;49.050;9.250;2023-04-26T16:02:12;98698.84;;;20.17;44.74
5455;BME280;2750;49.050;9.250;2023-04-26T16:07:14;98687.75;;;20.54;44.50
5455;BME280;2750;49.050;9.250;2023-04-26T16:12:17;98693.94;;;20.33;45.10
5455;BME280;2750;49.050;9.250;2023-04-26T16:17:18;98698.94;;;19.96;44.53
5455;BME280;2750;49.050;9.250;2023-04-26T16:22:20;98700.50;;;20.48;43.46
5455;BME280;2750;49.050;9.250;2023-04-26T16:27:23;98685.13;;;22.78;41.14
5455;BME280;2750;49.050;9.250;2023-04-26T16:32:26;98686.19;;;22.85;41.35
5455;BME280;2750;49.050;9.250;2023-04-26T16:37:29;98685.25;;;20.12;44.50
5455;BME280;2750;49.050;9.250;2023-04-26T16:42:32;98685.69;;;18.29;47.11
5455;BME280;2750;49.050;9.250;2023-04-26T16:47:34;98692.56;;;18.95;46.29
5455;BME280;2750;49.050;9.250;2023-04-26T16:52:35;98690.03;;;21.25;43.91
5455;BME280;2750;49.050;9.250;2023-04-26T16:57:38;98697.94;;;21.25;43.74
5455;BME280;2750;49.050;9.250;2023-04-26T17:02:40;98695.94;;;20.50;44.10
5455;BME280;2750;49.050;9.250;2023-04-26T17:07:42;98697.75;;;19.38;45.75
5455;BME280;2750;49.050;9.250;2023-04-26T17:12:44;98702.56;;;18.81;46.43
5455;BME280;2750;49.050;9.250;2023-04-26T17:17:46;98708.72;;;18.91;46.77
5455;BME280;2750;49.050;9.250;2023-04-26T17:22:48;98715.13;;;17.55;48.08
5455;BME280;2750;49.050;9.250;2023-04-26T17:27:51;98721.00;;;16.16;50.06
5455;BME280;2750;49.050;9.250;2023-04-26T17:32:53;98715.78;;;15.91;50.89
5455;BME280;2750;49.050;9.250;2023-04-26T17:37:54;98720.81;;;15.68;51.37
5455;BME280;2750;49.050;9.250;2023-04-26T17:42:57;98734.44;;;15.73;51.62
5455;BME280;2750;49.050;9.250;2023-04-26T17:47:59;98732.47;;;15.38;52.53
5455;BME280;2750;49.050;9.250;2023-04-26T17:53:00;98737.84;;;14.97;52.74
5455;BME280;2750;49.050;9.250;2023-04-26T17:58:03;98744.53;;;15.01;53.46
5455;BME280;2750;49.050;9.250;2023-04-26T18:03:04;98737.34;;;15.04;52.89
5455;BME280;2750;49.050;9.250;2023-04-26T18:08:06;98744.28;;;14.91;53.03
5455;BME280;2750;49.050;9.250;2023-04-26T18:13:09;98741.16;;;14.99;53.79
5455;BME280;2750;49.050;9.250;2023-04-26T18:18:11;98746.06;;;15.30;52.82
5455;BME280;2750;49.050;9.250;2023-04-26T18:23:12;98749.78;;;15.53;52.46
5455;BME280;2750;49.050;9.250;2023-04-26T18:28:15;98764.03;;;15.09;56.94
5455;BME280;2750;49.050;9.250;2023-04-26T18:33:17;98762.00;;;14.73;58.18
5455;BME280;2750;49.050;9.250;2023-04-26T18:38:18;98764.84;;;14.00;59.12
5455;BME280;2750;49.050;9.250;2023-04-26T18:43:21;98770.22;;;13.68;61.19
5455;BME280;2750;49.050;9.250;2023-04-26T18:48:23;98780.25;;;13.46;61.31
5455;BME280;2750;49.050;9.250;2023-04-26T18:53:24;98787.22;;;12.84;61.88
5455;BME280;2750;49.050;9.250;2023-04-26T18:58:28;98788.06;;;12.54;62.49
5455;BME280;2750;49.050;9.250;2023-04-26T19:03:29;98796.81;;;12.37;62.59
5455;BME280;2750;49.050;9.250;2023-04-26T19:08:31;98793.50;;;12.18;63.73
5455;BME280;2750;49.050;9.250;2023-04-26T19:13:34;98802.38;;;12.14;63.28
5455;BME280;2750;49.050;9.250;2023-04-26T19:18:36;98808.56;;;11.95;64.97
5455;BME280;2750;49.050;9.250;2023-04-26T19:23:39;98809.09;;;12.18;65.47
5455;BME280;2750;49.050;9.250;2023-04-26T19:28:42;98811.94;;;11.80;64.87
5455;BME280;2750;49.050;9.250;2023-04-26T19:33:44;98813.44;;;11.84;65.61
5455;BME280;2750;49.050;9.250;2023-04-26T19:38:45;98824.31;;;12.25;65.57
5455;BME280;2750;49.050;9.250;2023-04-26T19:43:49;98829.03;;;11.84;67.31
5455;BME280;2750;49.050;9.250;2023-04-26T19:48:50;98840.56;;;11.96;65.66
5455;BME280;2750;49.050;9.250;2023-04-26T19:53:52;98843.78;;;12.18;65.04
5455;BME280;2750;49.050;9.250;2023-04-26T19:58:55;98846.44;;;12.17;64.16
5455;BME280;2750;49.050;9.250;2023-04-26T20:03:56;98842.97;;;12.33;64.43
5455;BME280;2750;49.050;9.250;2023-04-26T20:08:58;98851.84;;;12.29;63.31
5455;BME280;2750;49.050;9.250;2023-04-26T20:14:01;98849.81;;;12.34;63.36
5455;BME280;2750;49.050;9.250;2023-04-26T20:19:03;98844.16;;;12.43;62.94
5455;BME280;2750;49.050;9.250;2023-04-26T20:24:05;98840.78;;;12.26;66.68
5455;BME280;2750;49.050;9.250;2023-04-26T20:29:08;98849.50;;;12.08;69.19
5455;BME280;2750;49.050;9.250;2023-04-26T20:34:09;98852.03;;;12.09;69.23
5455;BME280;2750;49.050;9.250;2023-04-26T20:39:11;98856.38;;;12.26;68.44
5455;BME280;2750;49.050;9.250;2023-04-26T20:44:14;98849.66;;;12.22;68.29
5455;BME280;2750;49.050;9.250;2023-04-26T20:49:15;98845.31;;;12.05;67.93
5455;BME280;2750;49.050;9.250;2023-04-26T20:54:17;98843.81;;;11.84;66.28
5455;BME280;2750;49.050;9.250;2023-04-26T20:59:20;98857.91;;;11.44;66.04
5455;BME280;2750;49.050;9.250;2023-04-26T21:04:21;98861.13;;;11.66;66.60
5455;BME280;2750;49.050;9.250;2023-04-26T21:09:23;98854.47;;;12.12;66.44
5455;BME280;2750;49.050;9.250;2023-04-26T21:14:26;98856.88;;;12.32;66.78
5455;BME280;2750;49.050;9.250;2023-04-26T21:19:27;98855.19;;;11.81;69.54
5455;BME280;2750;49.050;9.250;2023-04-26T21:24:29;98861.75;;;12.06;68.74
5455;BME280;2750;49.050;9.250;2023-04-26T21:29:32;98860.84;;;11.89;68.75
5455;BME280;2750;49.050;9.250;2023-04-26T21:34:33;98857.22;;;11.58;68.57
5455;BME280;2750;49.050;9.250;2023-04-26T21:39:35;98856.69;;;11.34;70.66
5455;BME280;2750;49.050;9.250;2023-04-26T21:44:38;98862.63;;;11.36;71.26
5455;BME280;2750;49.050;9.250;2023-04-26T21:49:39;98862.28;;;11.08;70.22
5455;BME280;2750;49.050;9.250;2023-04-26T21:54:41;98856.22;;;11.26;69.21
5455;BME280;2750;49.050;9.250;2023-04-26T21:59:44;98862.78;;;11.33;70.00
5455;BME280;2750;49.050;9.250;2023-04-26T22:04:45;98868.19;;;11.11;70.81
5455;BME280;2750;49.050;9.250;2023-04-26T22:09:47;98884.72;;;11.09;71.07
5455;BME280;2750;49.050;9.250;2023-04-26T22:14:50;98874.72;;;11.37;70.35
5455;BME280;2750;49.050;9.250;2023-04-26T22:19:51;98877.31;;;11.54;70.99
5455;BME280;2750;49.050;9.250;2023-04-26T22:24:54;98876.09;;;11.44;72.50
5455;BME280;2750;49.050;9.250;2023-04-26T22:29:57;98878.69;;;11.44;72.71
5455;BME280;2750;49.050;9.250;2023-04-26T22:34:59;98874.50;;;10.87;70.56
5455;BME280;2750;49.050;9.250;2023-04-26T22:40:00;98871.06;;;10.86;70.52
5455;BME280;2750;49.050;9.250;2023-04-26T22:45:06;98874.06;;;10.77;70.36
5455;BME280;2750;49.050;9.250;2023-04-26T22:50:08;98873.25;;;10.77;70.48
5455;BME280;2750;49.050;9.250;2023-04-26T22:55:10;98875.84;;;10.77;71.87
5455;BME280;2750;49.050;9.250;2023-04-26T23:00:13;98884.19;;;10.65;72.76
5455;BME280;2750;49.050;9.250;2023-04-26T23:05:15;98893.38;;;10.53;72.46
5455;BME280;2750;49.050;9.250;2023-04-26T23:10:17;98901.28;;;10.50;72.83
5455;BME280;2750;49.050;9.250;2023-04-26T23:15:20;98900.56;;;10.46;72.90
5455;BME280;2750;49.050;9.250;2023-04-26T23:20:21;98896.13;;;10.30;73.34
5455;BME280;2750;49.050;9.250;2023-04-26T23:25:23;98905.00;;;9.84;75.72
5455;BME280;2750;49.050;9.250;2023-04-26T23:30:26;98903.22;;;9.64;76.84
5455;BME280;2750;49.050;9.250;2023-04-26T23:35:27;98896.06;;;9.49;76.20
5455;BME280;2750;49.050;9.250;2023-04-26T23:40:29;98898.78;;;9.02;76.72
5455;BME280;2750;49.050;9.250;2023-04-26T23:45:31;98898.69;;;8.82;78.41
5455;BME280;2750;49.050;9.250;2023-04-26T23:50:33;98900.59;;;9.00;78.01
5455;BME280;2750;49.050;9.250;2023-04-26T23:55:35;98905.56;;;9.05;76.57
